logo
Rechercher aéroport 
image banner adimage banner adimage banner ad
image banner ad

FALS - Somersveld

Situé à Somersveld, South Africa

ICAO - FALS, IATA -

Données fournies par Airmate  

Information générale

Coordonnées: S33°14'46" E18°28'48"
Élévation : 196 feet MSL.
 
Voir autres Aéroports à Western Cape

Données opérationnelles

Special qualification required
Heure actuelle UTC:
Heure actuelle locale:
METAR: FALW 191300Z AUTO 23006KT //// // ////// 18/09 Q1021
Voir NOTAMs / SUP AIP / TFR affectant cet aéroport [VIEW]
Fréquences de communication: [VIEW]

Pistes:

Identifiant RWYQFULongueur (ft)Largeur (ft)SurfaceLDA (ft)
02150°3543148ASPH
20330°3543148ASPH

Coordonnées de l'aéroport

Adresse: Somersveld South Africa

Vue satellite de FALS